sensor_id;sensor_type;location;lat;lon;timestamp;P1;durP1;ratioP1;P2;durP2;ratioP2
25972;SDS011;13765;51.166;4.466;2023-06-10T00:00:07;17.70;;;8.68;;
25972;SDS011;13765;51.166;4.466;2023-06-10T00:02:37;15.80;;;8.90;;
25972;SDS011;13765;51.166;4.466;2023-06-10T00:05:03;16.77;;;8.27;;
25972;SDS011;13765;51.166;4.466;2023-06-10T00:07:32;19.83;;;8.45;;
25972;SDS011;13765;51.166;4.466;2023-06-10T00:10:04;16.88;;;8.38;;
25972;SDS011;13765;51.166;4.466;2023-06-10T00:12:31;17.75;;;8.85;;
25972;SDS011;13765;51.166;4.466;2023-06-10T00:15:02;19.13;;;9.50;;
25972;SDS011;13765;51.166;4.466;2023-06-10T00:17:33;16.88;;;8.88;;
25972;SDS011;13765;51.166;4.466;2023-06-10T00:19:59;17.30;;;8.32;;
25972;SDS011;13765;51.166;4.466;2023-06-10T00:22:25;16.42;;;8.57;;
25972;SDS011;13765;51.166;4.466;2023-06-10T00:24:54;21.23;;;8.82;;
25972;SDS011;13765;51.166;4.466;2023-06-10T00:27:24;15.88;;;8.23;;
25972;SDS011;13765;51.166;4.466;2023-06-10T00:29:58;15.77;;;8.65;;
25972;SDS011;13765;51.166;4.466;2023-06-10T00:32:24;18.17;;;8.88;;
25972;SDS011;13765;51.166;4.466;2023-06-10T00:34:50;22.05;;;10.80;;
25972;SDS011;13765;51.166;4.466;2023-06-10T00:37:18;18.45;;;9.65;;
25972;SDS011;13765;51.166;4.466;2023-06-10T00:39:43;17.63;;;9.10;;
25972;SDS011;13765;51.166;4.466;2023-06-10T00:42:09;18.45;;;10.00;;
25972;SDS011;13765;51.166;4.466;2023-06-10T00:44:35;17.60;;;8.75;;
25972;SDS011;13765;51.166;4.466;2023-06-10T00:47:09;21.10;;;9.30;;
25972;SDS011;13765;51.166;4.466;2023-06-10T00:49:37;19.25;;;9.52;;
25972;SDS011;13765;51.166;4.466;2023-06-10T00:52:03;21.92;;;9.38;;
25972;SDS011;13765;51.166;4.466;2023-06-10T00:54:30;16.73;;;9.13;;
25972;SDS011;13765;51.166;4.466;2023-06-10T00:56:56;17.13;;;8.60;;
25972;SDS011;13765;51.166;4.466;2023-06-10T00:59:25;18.15;;;9.18;;
25972;SDS011;13765;51.166;4.466;2023-06-10T01:01:51;18.55;;;9.18;;
25972;SDS011;13765;51.166;4.466;2023-06-10T01:04:17;18.77;;;8.95;;
25972;SDS011;13765;51.166;4.466;2023-06-10T01:09:30;18.27;;;9.38;;
25972;SDS011;13765;51.166;4.466;2023-06-10T01:12:09;19.05;;;9.32;;
25972;SDS011;13765;51.166;4.466;2023-06-10T01:14:36;19.45;;;8.93;;
25972;SDS011;13765;51.166;4.466;2023-06-10T01:17:09;18.23;;;9.35;;
25972;SDS011;13765;51.166;4.466;2023-06-10T01:19:41;19.48;;;9.20;;
25972;SDS011;13765;51.166;4.466;2023-06-10T01:22:08;18.25;;;9.90;;
25972;SDS011;13765;51.166;4.466;2023-06-10T01:24:35;18.90;;;9.27;;
25972;SDS011;13765;51.166;4.466;2023-06-10T01:27:02;19.08;;;9.70;;
25972;SDS011;13765;51.166;4.466;2023-06-10T01:32:11;18.90;;;9.63;;
25972;SDS011;13765;51.166;4.466;2023-06-10T01:34:43;19.98;;;9.18;;
25972;SDS011;13765;51.166;4.466;2023-06-10T01:37:13;19.52;;;8.77;;
25972;SDS011;13765;51.166;4.466;2023-06-10T01:39:41;24.33;;;9.75;;
25972;SDS011;13765;51.166;4.466;2023-06-10T01:42:08;19.08;;;9.73;;
25972;SDS011;13765;51.166;4.466;2023-06-10T01:44:35;20.52;;;9.48;;
25972;SDS011;13765;51.166;4.466;2023-06-10T01:47:07;19.45;;;9.60;;
25972;SDS011;13765;51.166;4.466;2023-06-10T01:49:36;20.25;;;10.13;;
25972;SDS011;13765;51.166;4.466;2023-06-10T01:52:04;19.08;;;8.65;;
25972;SDS011;13765;51.166;4.466;2023-06-10T01:54:30;19.88;;;10.60;;
25972;SDS011;13765;51.166;4.466;2023-06-10T01:56:56;18.38;;;9.65;;
25972;SDS011;13765;51.166;4.466;2023-06-10T01:59:24;20.73;;;9.80;;
25972;SDS011;13765;51.166;4.466;2023-06-10T02:01:49;18.98;;;9.82;;
25972;SDS011;13765;51.166;4.466;2023-06-10T02:04:17;21.77;;;10.50;;
25972;SDS011;13765;51.166;4.466;2023-06-10T02:06:45;19.23;;;10.00;;
25972;SDS011;13765;51.166;4.466;2023-06-10T02:09:13;20.15;;;10.15;;
25972;SDS011;13765;51.166;4.466;2023-06-10T02:11:39;23.30;;;10.07;;
25972;SDS011;13765;51.166;4.466;2023-06-10T02:14:05;18.42;;;9.98;;
25972;SDS011;13765;51.166;4.466;2023-06-10T02:16:30;17.50;;;9.40;;
25972;SDS011;13765;51.166;4.466;2023-06-10T02:18:56;19.42;;;10.55;;
25972;SDS011;13765;51.166;4.466;2023-06-10T02:21:22;18.85;;;10.13;;
25972;SDS011;13765;51.166;4.466;2023-06-10T02:23:48;19.02;;;9.75;;
25972;SDS011;13765;51.166;4.466;2023-06-10T02:26:14;21.42;;;9.80;;
25972;SDS011;13765;51.166;4.466;2023-06-10T02:28:43;21.33;;;9.82;;
25972;SDS011;13765;51.166;4.466;2023-06-10T02:31:08;19.63;;;10.63;;
25972;SDS011;13765;51.166;4.466;2023-06-10T02:33:34;21.70;;;10.25;;
25972;SDS011;13765;51.166;4.466;2023-06-10T02:36:00;19.63;;;11.20;;
25972;SDS011;13765;51.166;4.466;2023-06-10T02:38:30;19.45;;;10.02;;
25972;SDS011;13765;51.166;4.466;2023-06-10T02:40:55;19.73;;;10.57;;
25972;SDS011;13765;51.166;4.466;2023-06-10T02:43:26;18.70;;;10.30;;
25972;SDS011;13765;51.166;4.466;2023-06-10T02:45:51;21.60;;;10.50;;
25972;SDS011;13765;51.166;4.466;2023-06-10T02:48:17;19.08;;;9.65;;
25972;SDS011;13765;51.166;4.466;2023-06-10T02:50:47;20.95;;;11.25;;
25972;SDS011;13765;51.166;4.466;2023-06-10T02:53:13;20.27;;;11.32;;
25972;SDS011;13765;51.166;4.466;2023-06-10T02:55:38;20.00;;;11.80;;
25972;SDS011;13765;51.166;4.466;2023-06-10T02:58:04;20.48;;;11.25;;
25972;SDS011;13765;51.166;4.466;2023-06-10T03:00:35;20.23;;;10.88;;
25972;SDS011;13765;51.166;4.466;2023-06-10T03:03:02;19.55;;;11.05;;
25972;SDS011;13765;51.166;4.466;2023-06-10T03:05:30;19.30;;;11.00;;
25972;SDS011;13765;51.166;4.466;2023-06-10T03:07:56;20.38;;;11.40;;
25972;SDS011;13765;51.166;4.466;2023-06-10T03:10:22;18.83;;;10.57;;
25972;SDS011;13765;51.166;4.466;2023-06-10T03:12:47;22.75;;;11.15;;
25972;SDS011;13765;51.166;4.466;2023-06-10T03:15:13;21.85;;;10.98;;
25972;SDS011;13765;51.166;4.466;2023-06-10T03:17:41;22.20;;;11.60;;
25972;SDS011;13765;51.166;4.466;2023-06-10T03:20:07;19.95;;;11.80;;
25972;SDS011;13765;51.166;4.466;2023-06-10T03:22:37;20.83;;;11.88;;
25972;SDS011;13765;51.166;4.466;2023-06-10T03:25:05;22.45;;;10.85;;
25972;SDS011;13765;51.166;4.466;2023-06-10T03:27:33;20.10;;;11.27;;
25972;SDS011;13765;51.166;4.466;2023-06-10T03:30:03;22.33;;;12.13;;
25972;SDS011;13765;51.166;4.466;2023-06-10T03:32:28;20.38;;;10.73;;
25972;SDS011;13765;51.166;4.466;2023-06-10T03:34:54;19.73;;;11.48;;
25972;SDS011;13765;51.166;4.466;2023-06-10T03:37:23;21.38;;;11.13;;
25972;SDS011;13765;51.166;4.466;2023-06-10T03:39:50;24.30;;;12.43;;
25972;SDS011;13765;51.166;4.466;2023-06-10T03:42:15;24.70;;;12.32;;
25972;SDS011;13765;51.166;4.466;2023-06-10T03:44:48;21.55;;;11.68;;
25972;SDS011;13765;51.166;4.466;2023-06-10T03:47:14;22.17;;;12.20;;
25972;SDS011;13765;51.166;4.466;2023-06-10T03:49:44;21.98;;;11.70;;
25972;SDS011;13765;51.166;4.466;2023-06-10T03:52:10;21.55;;;12.27;;
25972;SDS011;13765;51.166;4.466;2023-06-10T03:54:35;21.17;;;11.20;;
25972;SDS011;13765;51.166;4.466;2023-06-10T03:57:03;21.85;;;12.70;;
25972;SDS011;13765;51.166;4.466;2023-06-10T03:59:30;20.08;;;11.60;;
25972;SDS011;13765;51.166;4.466;2023-06-10T04:01:56;23.90;;;11.63;;
25972;SDS011;13765;51.166;4.466;2023-06-10T04:04:22;20.33;;;11.80;;
25972;SDS011;13765;51.166;4.466;2023-06-10T04:06:48;23.40;;;11.77;;
25972;SDS011;13765;51.166;4.466;2023-06-10T04:09:18;22.42;;;12.85;;
25972;SDS011;13765;51.166;4.466;2023-06-10T04:11:44;25.42;;;12.02;;
25972;SDS011;13765;51.166;4.466;2023-06-10T04:14:10;22.33;;;12.02;;
25972;SDS011;13765;51.166;4.466;2023-06-10T04:16:38;22.15;;;12.13;;
25972;SDS011;13765;51.166;4.466;2023-06-10T04:19:03;19.55;;;10.95;;
25972;SDS011;13765;51.166;4.466;2023-06-10T04:21:31;19.98;;;11.63;;
25972;SDS011;13765;51.166;4.466;2023-06-10T04:24:00;22.55;;;11.75;;
25972;SDS011;13765;51.166;4.466;2023-06-10T04:26:26;20.98;;;11.32;;
25972;SDS011;13765;51.166;4.466;2023-06-10T04:28:57;21.85;;;11.50;;
25972;SDS011;13765;51.166;4.466;2023-06-10T04:31:25;22.88;;;11.95;;
25972;SDS011;13765;51.166;4.466;2023-06-10T04:33:59;22.60;;;12.07;;
25972;SDS011;13765;51.166;4.466;2023-06-10T04:36:27;20.70;;;11.80;;
25972;SDS011;13765;51.166;4.466;2023-06-10T04:38:57;21.77;;;11.80;;
25972;SDS011;13765;51.166;4.466;2023-06-10T04:41:28;24.92;;;11.95;;
25972;SDS011;13765;51.166;4.466;2023-06-10T04:43:56;20.67;;;10.93;;
25972;SDS011;13765;51.166;4.466;2023-06-10T04:46:22;20.60;;;11.52;;
25972;SDS011;13765;51.166;4.466;2023-06-10T04:48:49;19.92;;;11.55;;
25972;SDS011;13765;51.166;4.466;2023-06-10T04:51:14;21.80;;;11.48;;
25972;SDS011;13765;51.166;4.466;2023-06-10T04:53:40;21.98;;;12.27;;
25972;SDS011;13765;51.166;4.466;2023-06-10T04:56:06;20.02;;;11.18;;
25972;SDS011;13765;51.166;4.466;2023-06-10T04:58:32;23.95;;;11.15;;
25972;SDS011;13765;51.166;4.466;2023-06-10T05:00:58;20.65;;;11.57;;
25972;SDS011;13765;51.166;4.466;2023-06-10T05:03:24;21.85;;;12.23;;
25972;SDS011;13765;51.166;4.466;2023-06-10T05:05:51;22.90;;;11.90;;
25972;SDS011;13765;51.166;4.466;2023-06-10T05:08:21;21.20;;;11.10;;
25972;SDS011;13765;51.166;4.466;2023-06-10T05:10:49;19.98;;;11.30;;
25972;SDS011;13765;51.166;4.466;2023-06-10T05:13:16;22.55;;;12.00;;
25972;SDS011;13765;51.166;4.466;2023-06-10T05:15:42;20.10;;;11.48;;
25972;SDS011;13765;51.166;4.466;2023-06-10T05:18:11;20.98;;;12.10;;
25972;SDS011;13765;51.166;4.466;2023-06-10T05:20:37;22.27;;;11.60;;
25972;SDS011;13765;51.166;4.466;2023-06-10T05:23:03;20.88;;;10.75;;
25972;SDS011;13765;51.166;4.466;2023-06-10T05:25:32;19.27;;;10.23;;
25972;SDS011;13765;51.166;4.466;2023-06-10T05:27:58;22.45;;;11.30;;
25972;SDS011;13765;51.166;4.466;2023-06-10T05:30:24;18.33;;;9.45;;
25972;SDS011;13765;51.166;4.466;2023-06-10T05:32:52;17.92;;;10.27;;
25972;SDS011;13765;51.166;4.466;2023-06-10T05:35:21;19.42;;;10.07;;
25972;SDS011;13765;51.166;4.466;2023-06-10T05:37:49;19.25;;;10.27;;
25972;SDS011;13765;51.166;4.466;2023-06-10T05:40:14;18.60;;;9.88;;
25972;SDS011;13765;51.166;4.466;2023-06-10T05:42:40;17.45;;;9.38;;
25972;SDS011;13765;51.166;4.466;2023-06-10T05:45:09;20.88;;;9.82;;
25972;SDS011;13765;51.166;4.466;2023-06-10T05:47:35;20.08;;;10.35;;
25972;SDS011;13765;51.166;4.466;2023-06-10T05:50:03;18.92;;;10.23;;
25972;SDS011;13765;51.166;4.466;2023-06-10T05:52:32;20.35;;;10.15;;
25972;SDS011;13765;51.166;4.466;2023-06-10T05:54:58;20.70;;;10.98;;
25972;SDS011;13765;51.166;4.466;2023-06-10T05:57:24;22.83;;;11.20;;
25972;SDS011;13765;51.166;4.466;2023-06-10T05:59:51;19.48;;;10.02;;
25972;SDS011;13765;51.166;4.466;2023-06-10T06:02:17;20.60;;;10.70;;
25972;SDS011;13765;51.166;4.466;2023-06-10T06:04:47;20.67;;;11.15;;
25972;SDS011;13765;51.166;4.466;2023-06-10T06:07:12;20.45;;;10.90;;
25972;SDS011;13765;51.166;4.466;2023-06-10T06:09:40;21.67;;;11.60;;
25972;SDS011;13765;51.166;4.466;2023-06-10T06:12:06;23.13;;;10.65;;
25972;SDS011;13765;51.166;4.466;2023-06-10T06:14:33;23.00;;;10.60;;
25972;SDS011;13765;51.166;4.466;2023-06-10T06:17:03;18.23;;;9.70;;
25972;SDS011;13765;51.166;4.466;2023-06-10T06:19:29;19.73;;;10.95;;
25972;SDS011;13765;51.166;4.466;2023-06-10T06:21:58;20.55;;;9.82;;
25972;SDS011;13765;51.166;4.466;2023-06-10T06:24:26;18.17;;;10.00;;
25972;SDS011;13765;51.166;4.466;2023-06-10T06:26:51;20.42;;;10.50;;
25972;SDS011;13765;51.166;4.466;2023-06-10T06:29:17;22.50;;;11.23;;
25972;SDS011;13765;51.166;4.466;2023-06-10T06:31:45;20.85;;;10.20;;
25972;SDS011;13765;51.166;4.466;2023-06-10T06:34:11;20.85;;;10.68;;
25972;SDS011;13765;51.166;4.466;2023-06-10T06:36:41;18.33;;;9.27;;
25972;SDS011;13765;51.166;4.466;2023-06-10T06:39:07;18.45;;;9.95;;
25972;SDS011;13765;51.166;4.466;2023-06-10T06:41:32;18.83;;;9.30;;
25972;SDS011;13765;51.166;4.466;2023-06-10T06:43:58;17.73;;;9.30;;
25972;SDS011;13765;51.166;4.466;2023-06-10T06:46:24;21.27;;;10.10;;
25972;SDS011;13765;51.166;4.466;2023-06-10T06:48:53;19.80;;;9.20;;
25972;SDS011;13765;51.166;4.466;2023-06-10T06:51:19;25.83;;;10.23;;
25972;SDS011;13765;51.166;4.466;2023-06-10T06:53:44;18.23;;;9.18;;
25972;SDS011;13765;51.166;4.466;2023-06-10T06:56:11;21.50;;;9.88;;
25972;SDS011;13765;51.166;4.466;2023-06-10T06:58:39;21.13;;;9.63;;
25972;SDS011;13765;51.166;4.466;2023-06-10T07:01:05;17.40;;;9.20;;
25972;SDS011;13765;51.166;4.466;2023-06-10T07:03:30;19.52;;;9.02;;
25972;SDS011;13765;51.166;4.466;2023-06-10T07:05:57;18.70;;;8.85;;
25972;SDS011;13765;51.166;4.466;2023-06-10T07:08:22;17.35;;;7.75;;
25972;SDS011;13765;51.166;4.466;2023-06-10T07:10:48;17.05;;;9.05;;
25972;SDS011;13765;51.166;4.466;2023-06-10T07:13:16;20.08;;;9.02;;
25972;SDS011;13765;51.166;4.466;2023-06-10T07:15:44;15.95;;;7.80;;
25972;SDS011;13765;51.166;4.466;2023-06-10T07:18:09;16.70;;;8.80;;
25972;SDS011;13765;51.166;4.466;2023-06-10T07:20:35;17.83;;;8.77;;
25972;SDS011;13765;51.166;4.466;2023-06-10T07:23:01;20.20;;;8.30;;
25972;SDS011;13765;51.166;4.466;2023-06-10T07:25:29;17.90;;;8.23;;
25972;SDS011;13765;51.166;4.466;2023-06-10T07:27:57;18.75;;;8.43;;
25972;SDS011;13765;51.166;4.466;2023-06-10T07:30:25;16.35;;;7.90;;
25972;SDS011;13765;51.166;4.466;2023-06-10T07:32:51;17.15;;;8.50;;
25972;SDS011;13765;51.166;4.466;2023-06-10T07:35:19;20.77;;;8.95;;
25972;SDS011;13765;51.166;4.466;2023-06-10T07:37:45;17.23;;;8.68;;
25972;SDS011;13765;51.166;4.466;2023-06-10T07:40:13;18.70;;;8.05;;
25972;SDS011;13765;51.166;4.466;2023-06-10T07:42:38;16.83;;;8.15;;
25972;SDS011;13765;51.166;4.466;2023-06-10T07:45:09;18.85;;;8.80;;
25972;SDS011;13765;51.166;4.466;2023-06-10T07:47:35;18.48;;;8.60;;
25972;SDS011;13765;51.166;4.466;2023-06-10T07:50:05;17.00;;;7.88;;
25972;SDS011;13765;51.166;4.466;2023-06-10T07:52:31;14.82;;;7.38;;
25972;SDS011;13765;51.166;4.466;2023-06-10T07:54:57;15.80;;;7.80;;
25972;SDS011;13765;51.166;4.466;2023-06-10T07:57:22;16.50;;;8.20;;
25972;SDS011;13765;51.166;4.466;2023-06-10T07:59:48;16.42;;;8.25;;
25972;SDS011;13765;51.166;4.466;2023-06-10T08:02:14;14.55;;;8.15;;
25972;SDS011;13765;51.166;4.466;2023-06-10T08:04:41;16.13;;;7.85;;
25972;SDS011;13765;51.166;4.466;2023-06-10T08:07:07;16.63;;;7.38;;
25972;SDS011;13765;51.166;4.466;2023-06-10T08:09:33;19.67;;;9.27;;
25972;SDS011;13765;51.166;4.466;2023-06-10T08:11:59;16.48;;;8.02;;
25972;SDS011;13765;51.166;4.466;2023-06-10T08:14:24;14.90;;;7.10;;
25972;SDS011;13765;51.166;4.466;2023-06-10T08:16:52;18.38;;;8.13;;
25972;SDS011;13765;51.166;4.466;2023-06-10T08:19:18;16.08;;;7.55;;
25972;SDS011;13765;51.166;4.466;2023-06-10T08:21:45;16.95;;;7.47;;
25972;SDS011;13765;51.166;4.466;2023-06-10T08:24:11;20.92;;;7.85;;
25972;SDS011;13765;51.166;4.466;2023-06-10T08:26:37;17.50;;;8.05;;
25972;SDS011;13765;51.166;4.466;2023-06-10T08:29:06;16.77;;;7.28;;
25972;SDS011;13765;51.166;4.466;2023-06-10T08:31:31;13.68;;;6.68;;
25972;SDS011;13765;51.166;4.466;2023-06-10T08:34:01;14.30;;;7.25;;
25972;SDS011;13765;51.166;4.466;2023-06-10T08:36:27;14.57;;;6.85;;
25972;SDS011;13765;51.166;4.466;2023-06-10T08:38:53;13.98;;;6.90;;
25972;SDS011;13765;51.166;4.466;2023-06-10T08:41:21;13.27;;;6.13;;
25972;SDS011;13765;51.166;4.466;2023-06-10T08:43:59;12.82;;;6.35;;
25972;SDS011;13765;51.166;4.466;2023-06-10T08:46:35;14.57;;;6.63;;
25972;SDS011;13765;51.166;4.466;2023-06-10T08:49:08;17.27;;;7.22;;
25972;SDS011;13765;51.166;4.466;2023-06-10T08:51:35;12.77;;;5.93;;
25972;SDS011;13765;51.166;4.466;2023-06-10T08:54:10;16.15;;;6.32;;
25972;SDS011;13765;51.166;4.466;2023-06-10T08:56:40;15.02;;;6.30;;
25972;SDS011;13765;51.166;4.466;2023-06-10T08:59:07;13.82;;;6.07;;
25972;SDS011;13765;51.166;4.466;2023-06-10T09:01:34;13.68;;;6.00;;
25972;SDS011;13765;51.166;4.466;2023-06-10T09:04:00;13.38;;;6.57;;
25972;SDS011;13765;51.166;4.466;2023-06-10T09:06:31;14.68;;;5.60;;
25972;SDS011;13765;51.166;4.466;2023-06-10T09:08:59;14.52;;;5.97;;
25972;SDS011;13765;51.166;4.466;2023-06-10T09:11:25;13.10;;;5.90;;
25972;SDS011;13765;51.166;4.466;2023-06-10T09:13:51;12.80;;;6.05;;
25972;SDS011;13765;51.166;4.466;2023-06-10T09:16:17;14.35;;;6.20;;
25972;SDS011;13765;51.166;4.466;2023-06-10T09:18:43;16.73;;;6.30;;
25972;SDS011;13765;51.166;4.466;2023-06-10T09:21:13;14.15;;;6.68;;
25972;SDS011;13765;51.166;4.466;2023-06-10T09:23:41;12.95;;;6.60;;
25972;SDS011;13765;51.166;4.466;2023-06-10T09:26:08;14.25;;;6.95;;
25972;SDS011;13765;51.166;4.466;2023-06-10T09:28:35;13.82;;;6.47;;
25972;SDS011;13765;51.166;4.466;2023-06-10T09:31:02;13.57;;;6.53;;
25972;SDS011;13765;51.166;4.466;2023-06-10T09:33:29;14.35;;;6.43;;
25972;SDS011;13765;51.166;4.466;2023-06-10T09:35:55;15.80;;;6.88;;
25972;SDS011;13765;51.166;4.466;2023-06-10T09:38:22;12.88;;;6.30;;
25972;SDS011;13765;51.166;4.466;2023-06-10T09:40:53;12.60;;;6.95;;
25972;SDS011;13765;51.166;4.466;2023-06-10T09:43:21;12.40;;;6.03;;
25972;SDS011;13765;51.166;4.466;2023-06-10T09:45:48;11.45;;;6.57;;
25972;SDS011;13765;51.166;4.466;2023-06-10T09:48:14;12.55;;;6.28;;
25972;SDS011;13765;51.166;4.466;2023-06-10T09:50:42;14.90;;;6.93;;
25972;SDS011;13765;51.166;4.466;2023-06-10T09:53:12;13.48;;;5.93;;
25972;SDS011;13765;51.166;4.466;2023-06-10T09:55:38;13.32;;;6.55;;
25972;SDS011;13765;51.166;4.466;2023-06-10T09:58:06;14.50;;;6.15;;
25972;SDS011;13765;51.166;4.466;2023-06-10T10:00:32;13.95;;;6.65;;
25972;SDS011;13765;51.166;4.466;2023-06-10T10:02:59;13.50;;;6.38;;
25972;SDS011;13765;51.166;4.466;2023-06-10T10:05:25;12.55;;;5.57;;
25972;SDS011;13765;51.166;4.466;2023-06-10T10:07:52;14.27;;;6.80;;
25972;SDS011;13765;51.166;4.466;2023-06-10T10:10:18;12.73;;;5.93;;
25972;SDS011;13765;51.166;4.466;2023-06-10T10:12:46;16.23;;;6.10;;
25972;SDS011;13765;51.166;4.466;2023-06-10T10:15:13;13.32;;;5.93;;
25972;SDS011;13765;51.166;4.466;2023-06-10T10:17:52;13.45;;;6.45;;
25972;SDS011;13765;51.166;4.466;2023-06-10T10:20:24;15.38;;;5.47;;
25972;SDS011;13765;51.166;4.466;2023-06-10T10:22:55;21.80;;;5.90;;
25972;SDS011;13765;51.166;4.466;2023-06-10T10:25:27;13.40;;;5.63;;
25972;SDS011;13765;51.166;4.466;2023-06-10T10:30:26;12.27;;;5.30;;
25972;SDS011;13765;51.166;4.466;2023-06-10T10:32:59;11.50;;;5.93;;
25972;SDS011;13765;51.166;4.466;2023-06-10T10:35:30;12.20;;;5.65;;
25972;SDS011;13765;51.166;4.466;2023-06-10T10:37:59;9.65;;;5.22;;
25972;SDS011;13765;51.166;4.466;2023-06-10T10:40:27;11.45;;;5.68;;
25972;SDS011;13765;51.166;4.466;2023-06-10T10:42:57;22.55;;;7.65;;
25972;SDS011;13765;51.166;4.466;2023-06-10T10:45:24;12.65;;;6.07;;
25972;SDS011;13765;51.166;4.466;2023-06-10T10:47:56;12.40;;;5.97;;
25972;SDS011;13765;51.166;4.466;2023-06-10T10:50:22;13.35;;;5.20;;
25972;SDS011;13765;51.166;4.466;2023-06-10T10:55:17;13.75;;;5.53;;
25972;SDS011;13765;51.166;4.466;2023-06-10T10:57:43;11.18;;;5.68;;
25972;SDS011;13765;51.166;4.466;2023-06-10T11:00:11;11.65;;;5.72;;
25972;SDS011;13765;51.166;4.466;2023-06-10T11:02:41;13.20;;;5.57;;
25972;SDS011;13765;51.166;4.466;2023-06-10T11:05:08;12.77;;;5.00;;
25972;SDS011;13765;51.166;4.466;2023-06-10T11:07:52;14.13;;;5.68;;
25972;SDS011;13765;51.166;4.466;2023-06-10T11:12:57;12.63;;;4.82;;
25972;SDS011;13765;51.166;4.466;2023-06-10T11:15:29;13.98;;;6.03;;
25972;SDS011;13765;51.166;4.466;2023-06-10T11:34:07;11.45;;;5.43;;
25972;SDS011;13765;51.166;4.466;2023-06-10T11:36:40;11.52;;;5.15;;
25972;SDS011;13765;51.166;4.466;2023-06-10T11:39:07;11.60;;;5.40;;
25972;SDS011;13765;51.166;4.466;2023-06-10T11:41:37;14.63;;;5.60;;
25972;SDS011;13765;51.166;4.466;2023-06-10T11:44:04;14.07;;;5.47;;
25972;SDS011;13765;51.166;4.466;2023-06-10T11:46:38;14.48;;;5.97;;
25972;SDS011;13765;51.166;4.466;2023-06-10T11:49:06;12.93;;;5.40;;
25972;SDS011;13765;51.166;4.466;2023-06-10T11:51:35;10.10;;;5.05;;
25972;SDS011;13765;51.166;4.466;2023-06-10T11:54:13;14.30;;;5.53;;
25972;SDS011;13765;51.166;4.466;2023-06-10T11:56:41;14.55;;;6.38;;
25972;SDS011;13765;51.166;4.466;2023-06-10T11:59:07;13.10;;;5.82;;
25972;SDS011;13765;51.166;4.466;2023-06-10T12:01:36;15.77;;;6.90;;
25972;SDS011;13765;51.166;4.466;2023-06-10T12:04:03;14.07;;;6.38;;
25972;SDS011;13765;51.166;4.466;2023-06-10T12:06:41;14.52;;;6.20;;
25972;SDS011;13765;51.166;4.466;2023-06-10T12:09:29;15.23;;;5.90;;
25972;SDS011;13765;51.166;4.466;2023-06-10T12:12:02;18.50;;;6.20;;
25972;SDS011;13765;51.166;4.466;2023-06-10T12:20:02;13.77;;;5.82;;
25972;SDS011;13765;51.166;4.466;2023-06-10T12:22:43;12.10;;;5.47;;
25972;SDS011;13765;51.166;4.466;2023-06-10T12:25:14;14.82;;;6.15;;
25972;SDS011;13765;51.166;4.466;2023-06-10T12:27:40;12.77;;;5.30;;
25972;SDS011;13765;51.166;4.466;2023-06-10T12:30:18;13.68;;;5.78;;
25972;SDS011;13765;51.166;4.466;2023-06-10T12:32:45;13.05;;;5.70;;
25972;SDS011;13765;51.166;4.466;2023-06-10T12:35:12;13.93;;;6.32;;
25972;SDS011;13765;51.166;4.466;2023-06-10T12:37:54;13.93;;;5.63;;
25972;SDS011;13765;51.166;4.466;2023-06-10T12:42:59;11.60;;;5.45;;
25972;SDS011;13765;51.166;4.466;2023-06-10T12:48:16;14.20;;;6.07;;
25972;SDS011;13765;51.166;4.466;2023-06-10T12:50:52;13.77;;;5.70;;
25972;SDS011;13765;51.166;4.466;2023-06-10T12:53:25;13.90;;;6.07;;
25972;SDS011;13765;51.166;4.466;2023-06-10T12:55:53;13.02;;;5.55;;
25972;SDS011;13765;51.166;4.466;2023-06-10T12:58:22;10.93;;;4.95;;
25972;SDS011;13765;51.166;4.466;2023-06-10T13:00:50;12.45;;;5.65;;
25972;SDS011;13765;51.166;4.466;2023-06-10T13:03:21;12.93;;;5.28;;
25972;SDS011;13765;51.166;4.466;2023-06-10T13:05:47;9.25;;;5.28;;
25972;SDS011;13765;51.166;4.466;2023-06-10T13:08:13;12.27;;;5.38;;
25972;SDS011;13765;51.166;4.466;2023-06-10T13:10:39;13.23;;;5.47;;
25972;SDS011;13765;51.166;4.466;2023-06-10T13:13:04;10.45;;;5.32;;
25972;SDS011;13765;51.166;4.466;2023-06-10T13:15:37;12.10;;;5.47;;
25972;SDS011;13765;51.166;4.466;2023-06-10T13:18:09;14.57;;;5.80;;
25972;SDS011;13765;51.166;4.466;2023-06-10T13:20:37;10.55;;;5.50;;
25972;SDS011;13765;51.166;4.466;2023-06-10T13:23:03;14.55;;;5.60;;
25972;SDS011;13765;51.166;4.466;2023-06-10T13:25:28;10.10;;;5.18;;
25972;SDS011;13765;51.166;4.466;2023-06-10T13:27:59;10.18;;;5.32;;
25972;SDS011;13765;51.166;4.466;2023-06-10T13:30:28;13.65;;;5.63;;
25972;SDS011;13765;51.166;4.466;2023-06-10T13:32:58;13.25;;;5.70;;
25972;SDS011;13765;51.166;4.466;2023-06-10T13:35:26;12.38;;;5.53;;
25972;SDS011;13765;51.166;4.466;2023-06-10T13:37:57;14.15;;;5.60;;
25972;SDS011;13765;51.166;4.466;2023-06-10T13:40:23;13.32;;;5.47;;
25972;SDS011;13765;51.166;4.466;2023-06-10T13:42:49;12.52;;;5.30;;
25972;SDS011;13765;51.166;4.466;2023-06-10T13:45:19;14.43;;;5.68;;
25972;SDS011;13765;51.166;4.466;2023-06-10T13:47:44;13.95;;;5.35;;
25972;SDS011;13765;51.166;4.466;2023-06-10T13:50:12;14.18;;;5.55;;
25972;SDS011;13765;51.166;4.466;2023-06-10T13:52:38;10.90;;;5.05;;
25972;SDS011;13765;51.166;4.466;2023-06-10T13:55:06;12.60;;;5.57;;
25972;SDS011;13765;51.166;4.466;2023-06-10T13:57:35;10.25;;;5.10;;
25972;SDS011;13765;51.166;4.466;2023-06-10T14:00:00;12.55;;;5.07;;
25972;SDS011;13765;51.166;4.466;2023-06-10T14:02:26;13.63;;;5.72;;
25972;SDS011;13765;51.166;4.466;2023-06-10T14:04:52;12.30;;;5.43;;
25972;SDS011;13765;51.166;4.466;2023-06-10T14:07:18;12.10;;;5.63;;
25972;SDS011;13765;51.166;4.466;2023-06-10T14:09:43;13.07;;;5.38;;
25972;SDS011;13765;51.166;4.466;2023-06-10T14:12:13;11.15;;;5.30;;
25972;SDS011;13765;51.166;4.466;2023-06-10T14:14:39;10.10;;;5.07;;
25972;SDS011;13765;51.166;4.466;2023-06-10T14:17:05;10.60;;;5.35;;
25972;SDS011;13765;51.166;4.466;2023-06-10T14:19:30;11.65;;;5.78;;
25972;SDS011;13765;51.166;4.466;2023-06-10T14:22:01;12.98;;;5.70;;
25972;SDS011;13765;51.166;4.466;2023-06-10T14:24:29;12.73;;;5.70;;
25972;SDS011;13765;51.166;4.466;2023-06-10T14:26:54;12.25;;;5.30;;
25972;SDS011;13765;51.166;4.466;2023-06-10T14:29:22;10.95;;;5.78;;
25972;SDS011;13765;51.166;4.466;2023-06-10T14:31:47;13.45;;;6.30;;
25972;SDS011;13765;51.166;4.466;2023-06-10T14:34:13;10.98;;;5.60;;
25972;SDS011;13765;51.166;4.466;2023-06-10T14:36:41;14.15;;;5.93;;
25972;SDS011;13765;51.166;4.466;2023-06-10T14:39:07;12.80;;;5.78;;
25972;SDS011;13765;51.166;4.466;2023-06-10T14:41:32;12.75;;;6.07;;
25972;SDS011;13765;51.166;4.466;2023-06-10T14:44:00;12.38;;;6.07;;
25972;SDS011;13765;51.166;4.466;2023-06-10T14:46:26;11.30;;;5.90;;
25972;SDS011;13765;51.166;4.466;2023-06-10T14:48:51;10.95;;;4.50;;
25972;SDS011;13765;51.166;4.466;2023-06-10T14:51:17;11.45;;;5.63;;
25972;SDS011;13765;51.166;4.466;2023-06-10T14:53:43;12.57;;;5.85;;
25972;SDS011;13765;51.166;4.466;2023-06-10T14:56:11;13.30;;;5.70;;
25972;SDS011;13765;51.166;4.466;2023-06-10T14:58:37;18.65;;;5.55;;
25972;SDS011;13765;51.166;4.466;2023-06-10T15:01:03;12.07;;;5.35;;
25972;SDS011;13765;51.166;4.466;2023-06-10T15:03:29;10.55;;;4.90;;
25972;SDS011;13765;51.166;4.466;2023-06-10T15:05:54;12.27;;;5.30;;
25972;SDS011;13765;51.166;4.466;2023-06-10T15:08:20;10.60;;;5.38;;
25972;SDS011;13765;51.166;4.466;2023-06-10T15:10:48;15.48;;;5.85;;
25972;SDS011;13765;51.166;4.466;2023-06-10T15:13:14;12.48;;;5.35;;